createdAt,value
2023-05-05T00:01:08.323Z,97268.22
2023-05-05T00:03:55.146Z,97264.13
2023-05-05T00:06:42.309Z,97264.59
2023-05-05T00:09:29.698Z,97249.13
2023-05-05T00:12:16.558Z,97253.97
2023-05-05T00:15:03.445Z,97254.69
2023-05-05T00:17:50.281Z,97257.03
2023-05-05T00:20:37.639Z,97245.91
2023-05-05T00:23:24.354Z,97252.84
2023-05-05T00:26:11.102Z,97260.59
2023-05-05T00:28:57.862Z,97264.78
2023-05-05T00:31:44.638Z,97263.63
2023-05-05T00:34:31.864Z,97261.41
2023-05-05T00:37:18.690Z,97261.91
2023-05-05T00:40:06.816Z,97267.16
2023-05-05T00:42:53.930Z,97268.47
2023-05-05T00:45:42.945Z,97255.47
2023-05-05T00:48:30.501Z,97261.53
2023-05-05T00:51:17.440Z,97254.97
2023-05-05T00:54:04.520Z,97263.53
2023-05-05T00:56:51.332Z,97259.88
2023-05-05T00:59:38.183Z,97252.28
2023-05-05T01:02:24.993Z,97240.56
2023-05-05T01:05:13.338Z,97238.34
2023-05-05T01:08:06.172Z,97240.22
2023-05-05T01:10:58.019Z,97241.72
2023-05-05T01:14:02.854Z,97236.22
2023-05-05T01:16:53.629Z,97233.19
2023-05-05T01:19:43.478Z,97236.59
2023-05-05T01:22:35.172Z,97232.72
2023-05-05T01:25:31.789Z,97238.56
2023-05-05T01:28:31.578Z,97233.06
2023-05-05T01:31:23.838Z,97227.91
2023-05-05T01:34:11.124Z,97239.13
2023-05-05T01:37:11.756Z,97231.78
2023-05-05T01:39:59.573Z,97227.66
2023-05-05T01:42:46.397Z,97226.25
2023-05-05T01:45:33.786Z,97233.16
2023-05-05T01:48:20.816Z,97224.72
2023-05-05T01:51:07.976Z,97234.31
2023-05-05T01:53:57.099Z,97233.94
2023-05-05T01:56:43.875Z,97237.94
2023-05-05T01:59:30.823Z,97230.31
2023-05-05T02:02:18.027Z,97226.47
2023-05-05T02:05:05.407Z,97227.72
2023-05-05T02:07:52.772Z,97233.56
2023-05-05T02:10:43.521Z,97242.09
2023-05-05T02:13:30.885Z,97240.06
2023-05-05T02:16:17.920Z,97235.16
2023-05-05T02:19:05.181Z,97230.47
2023-05-05T02:21:52.020Z,97239.22
2023-05-05T02:24:38.814Z,97248.56
2023-05-05T02:27:25.598Z,97246.31
2023-05-05T02:30:13.387Z,97254.03
2023-05-05T02:33:00.738Z,97247.22
2023-05-05T02:35:47.631Z,97246.03
2023-05-05T02:38:34.359Z,97240.28
2023-05-05T02:41:21.374Z,97235.38
2023-05-05T02:44:08.408Z,97232.31
2023-05-05T02:46:55.351Z,97240.00
2023-05-05T02:49:42.877Z,97239.66
2023-05-05T02:52:29.747Z,97228.75
2023-05-05T02:55:16.630Z,97227.56
2023-05-05T02:58:03.362Z,97229.66
2023-05-05T03:00:50.071Z,97236.31
2023-05-05T03:03:55.635Z,97224.16
2023-05-05T03:06:42.935Z,97222.97
2023-05-05T03:09:48.496Z,97223.41
2023-05-05T03:12:54.241Z,97227.59
2023-05-05T03:15:45.927Z,97216.69
2023-05-05T03:18:34.413Z,97213.63
2023-05-05T03:21:21.284Z,97221.09
2023-05-05T03:24:15.626Z,97227.75
2023-05-05T03:27:03.139Z,97231.09
2023-05-05T03:29:49.978Z,97232.38
2023-05-05T03:32:36.901Z,97232.81
2023-05-05T03:35:24.014Z,97228.09
2023-05-05T03:38:10.863Z,97231.22
2023-05-05T03:40:57.658Z,97230.00
2023-05-05T03:43:44.485Z,97225.09
2023-05-05T03:46:31.334Z,97233.00
2023-05-05T03:49:18.087Z,97231.56
2023-05-05T03:52:05.079Z,97234.69
2023-05-05T03:54:51.996Z,97229.75
2023-05-05T03:57:38.786Z,97225.88
2023-05-05T04:00:25.625Z,97233.34
2023-05-05T04:03:12.532Z,97233.78
2023-05-05T04:05:59.401Z,97235.28
2023-05-05T04:08:46.491Z,97236.75
2023-05-05T04:11:33.511Z,97232.66
2023-05-05T04:14:20.384Z,97221.53
2023-05-05T04:17:07.190Z,97236.19
2023-05-05T04:19:53.991Z,97233.38
2023-05-05T04:22:40.839Z,97233.81
2023-05-05T04:25:27.572Z,97235.47
2023-05-05T04:28:14.427Z,97232.22
2023-05-05T04:31:02.683Z,97230.19
2023-05-05T04:33:49.469Z,97231.22
2023-05-05T04:36:36.295Z,97236.44
2023-05-05T04:39:23.053Z,97242.44
2023-05-05T04:42:10.326Z,97236.34
2023-05-05T04:44:57.111Z,97238.38
2023-05-05T04:47:43.989Z,97231.94
2023-05-05T04:50:31.108Z,97223.25
2023-05-05T04:53:17.999Z,97230.84
2023-05-05T04:56:04.825Z,97239.59
2023-05-05T04:58:51.624Z,97243.38
2023-05-05T05:01:38.776Z,97230.00
2023-05-05T05:04:27.259Z,97250.88
2023-05-05T05:07:15.133Z,97240.78
2023-05-05T05:10:01.901Z,97243.09
2023-05-05T05:12:48.694Z,97246.00
2023-05-05T05:15:38.159Z,97248.06
2023-05-05T05:18:24.976Z,97257.78
2023-05-05T05:21:11.825Z,97245.84
2023-05-05T05:23:58.636Z,97255.72
2023-05-05T05:26:45.395Z,97252.44
2023-05-05T05:29:32.161Z,97246.25
2023-05-05T05:32:18.957Z,97258.63
2023-05-05T05:35:06.072Z,97244.59
2023-05-05T05:37:52.941Z,97255.13
2023-05-05T05:40:39.693Z,97254.50
2023-05-05T05:43:26.439Z,97259.28
2023-05-05T05:46:13.282Z,97253.09
2023-05-05T05:49:00.058Z,97265.22
2023-05-05T05:51:56.699Z,97258.22
2023-05-05T05:54:43.635Z,97264.03
2023-05-05T05:57:30.579Z,97259.72
2023-05-05T06:00:17.417Z,97260.75
2023-05-05T06:03:04.365Z,97257.84
2023-05-05T06:05:51.272Z,97265.06
2023-05-05T06:08:38.052Z,97262.00
2023-05-05T06:11:24.784Z,97262.41
2023-05-05T06:14:11.562Z,97266.72
2023-05-05T06:16:58.299Z,97253.97
2023-05-05T06:19:45.056Z,97253.09
2023-05-05T06:22:31.827Z,97254.06
2023-05-05T06:25:18.620Z,97247.25
2023-05-05T06:28:05.644Z,97242.25
2023-05-05T06:30:52.507Z,97230.53
2023-05-05T06:33:39.279Z,97244.31
2023-05-05T06:36:26.368Z,97239.34
2023-05-05T06:39:15.283Z,97256.03
2023-05-05T06:42:04.148Z,97257.44
2023-05-05T06:44:51.007Z,97275.00
2023-05-05T06:47:37.914Z,97277.22
2023-05-05T06:50:24.721Z,97273.03
2023-05-05T06:53:11.612Z,97273.00
2023-05-05T06:55:58.371Z,97285.78
2023-05-05T06:58:45.207Z,97289.69
2023-05-05T07:01:32.047Z,97289.25
2023-05-05T07:04:19.006Z,97307.13
2023-05-05T07:07:05.995Z,97309.38
2023-05-05T07:09:52.722Z,97293.03
2023-05-05T07:12:39.517Z,97289.34
2023-05-05T07:15:29.188Z,97285.59
2023-05-05T07:18:16.913Z,97279.00
2023-05-05T07:21:06.270Z,97273.19
2023-05-05T07:23:53.410Z,97270.25
2023-05-05T07:26:40.238Z,97272.72
2023-05-05T07:29:27.135Z,97255.34
2023-05-05T07:32:14.055Z,97262.75
2023-05-05T07:35:00.873Z,97250.16
2023-05-05T07:37:47.714Z,97250.75
2023-05-05T07:40:34.595Z,97246.81
2023-05-05T07:43:21.372Z,97245.31
2023-05-05T07:46:08.274Z,97248.38
2023-05-05T07:48:55.054Z,97241.13
2023-05-05T07:51:42.210Z,97243.38
2023-05-05T07:54:29.116Z,97242.31
2023-05-05T07:57:16.093Z,97243.56
2023-05-05T08:00:03.271Z,97245.78
2023-05-05T08:02:50.193Z,97243.28
2023-05-05T08:05:37.901Z,97247.59
2023-05-05T08:08:25.177Z,97251.25
2023-05-05T08:11:12.043Z,97245.78
2023-05-05T08:13:58.795Z,97244.28
2023-05-05T08:16:45.627Z,97256.22
2023-05-05T08:19:32.418Z,97252.28
2023-05-05T08:22:19.182Z,97244.16
2023-05-05T08:25:06.486Z,97244.06
2023-05-05T08:27:53.699Z,97237.81
2023-05-05T08:30:40.712Z,97242.94
2023-05-05T08:33:27.492Z,97245.53
2023-05-05T08:36:14.349Z,97243.16
2023-05-05T08:39:01.477Z,97233.47
2023-05-05T08:41:48.468Z,97237.47
2023-05-05T08:44:35.267Z,97239.00
2023-05-05T08:47:22.046Z,97229.00
2023-05-05T08:50:10.045Z,97238.41
2023-05-05T08:53:17.169Z,97230.44
2023-05-05T08:56:04.172Z,97239.00
2023-05-05T08:58:51.402Z,97231.88
2023-05-05T09:01:38.213Z,97233.88
2023-05-05T09:04:25.026Z,97236.25
2023-05-05T09:07:11.789Z,97236.09
2023-05-05T09:09:59.986Z,97236.00
2023-05-05T09:12:46.833Z,97226.75
2023-05-05T09:15:34.152Z,97217.72
2023-05-05T09:18:21.349Z,97212.22
2023-05-05T09:21:34.877Z,97206.72
2023-05-05T09:24:22.056Z,97216.34
2023-05-05T09:27:21.289Z,97210.84
2023-05-05T09:30:08.859Z,97208.84
2023-05-05T09:32:55.945Z,97212.44
2023-05-05T09:35:52.804Z,97202.00
2023-05-05T09:38:39.745Z,97193.53
2023-05-05T09:41:39.420Z,97202.09
2023-05-05T09:44:36.001Z,97205.47
2023-05-05T09:47:29.317Z,97201.56
2023-05-05T09:50:19.010Z,97194.16
2023-05-05T09:53:06.187Z,97198.56
2023-05-05T09:55:56.599Z,97197.88
2023-05-05T09:58:43.365Z,97199.81
2023-05-05T10:01:30.185Z,97201.78
2023-05-05T10:04:24.550Z,97204.34
2023-05-05T10:07:11.457Z,97212.00
2023-05-05T10:09:58.207Z,97212.88
2023-05-05T10:12:48.406Z,97203.00
2023-05-05T10:15:35.915Z,97206.84
2023-05-05T10:18:27.972Z,97204.25
2023-05-05T10:21:14.985Z,97201.63
2023-05-05T10:24:10.567Z,97208.78
2023-05-05T10:26:58.301Z,97198.63
2023-05-05T10:29:47.796Z,97189.31
2023-05-05T10:35:31.652Z,97189.78
2023-05-05T10:38:18.452Z,97195.81
2023-05-05T10:41:05.313Z,97187.53
2023-05-05T10:43:53.017Z,97187.38
2023-05-05T10:46:39.834Z,97178.06
2023-05-05T10:49:37.569Z,97173.56
2023-05-05T10:52:45.242Z,97173.38
2023-05-05T10:55:37.145Z,97165.34
2023-05-05T10:58:51.158Z,97171.38
2023-05-05T11:01:42.805Z,97160.13
2023-05-05T11:04:29.624Z,97160.75
2023-05-05T11:07:16.415Z,97161.63
2023-05-05T11:10:04.228Z,97161.44
2023-05-05T11:12:54.320Z,97157.97
2023-05-05T11:15:41.652Z,97148.88
2023-05-05T11:18:28.850Z,97138.91
2023-05-05T11:21:16.358Z,97145.75
2023-05-05T11:24:18.309Z,97143.91
2023-05-05T11:27:05.732Z,97129.38
2023-05-05T11:30:05.690Z,97130.25
2023-05-05T11:33:11.372Z,97119.47
2023-05-05T11:35:58.130Z,97119.28
2023-05-05T11:38:48.037Z,97113.09
2023-05-05T11:41:43.944Z,97109.63
2023-05-05T11:44:31.651Z,97111.28
2023-05-05T11:47:18.336Z,97111.56
2023-05-05T11:50:18.526Z,97113.25
2023-05-05T11:53:05.506Z,97105.19
2023-05-05T11:56:05.954Z,97110.38
2023-05-05T11:59:09.568Z,97094.16
2023-05-05T12:01:56.713Z,97096.66
2023-05-05T12:04:43.725Z,97102.09
2023-05-05T12:07:31.330Z,97083.44
2023-05-05T12:10:22.382Z,97083.47
2023-05-05T12:13:21.631Z,97083.53
2023-05-05T12:16:08.442Z,97071.63
2023-05-05T12:19:03.191Z,97066.25
2023-05-05T12:21:49.970Z,97060.84
2023-05-05T12:24:36.727Z,97055.69
2023-05-05T12:27:23.652Z,97056.00
2023-05-05T12:30:11.741Z,97060.63
2023-05-05T12:33:05.614Z,97053.31
2023-05-05T12:35:52.464Z,97067.16
2023-05-05T12:38:39.250Z,97058.50
2023-05-05T12:41:26.047Z,97052.56
2023-05-05T12:44:13.220Z,97055.28
2023-05-05T12:47:00.001Z,97056.38
2023-05-05T12:49:47.223Z,97059.38
2023-05-05T12:52:40.521Z,97056.13
2023-05-05T12:55:40.103Z,97055.31
2023-05-05T12:58:27.957Z,97051.00
2023-05-05T13:01:14.841Z,97056.72
2023-05-05T13:04:04.640Z,97059.19
2023-05-05T13:07:08.224Z,97049.94
2023-05-05T13:10:05.963Z,97058.66
2023-05-05T13:12:54.943Z,97049.97
2023-05-05T13:15:41.707Z,97053.22
2023-05-05T13:18:28.489Z,97043.47
2023-05-05T13:21:15.258Z,97039.97
2023-05-05T13:24:19.726Z,97041.31
2023-05-05T13:27:09.204Z,97039.16
2023-05-05T13:29:56.438Z,97036.16
2023-05-05T13:32:43.209Z,97038.34
2023-05-05T13:35:30.530Z,97036.16
2023-05-05T13:38:17.337Z,97035.09
2023-05-05T13:41:04.138Z,97027.75
2023-05-05T13:43:51.389Z,97034.53
2023-05-05T13:46:38.150Z,97033.69
2023-05-05T13:49:25.663Z,97031.53
2023-05-05T13:52:12.404Z,97037.28
2023-05-05T13:54:59.169Z,97029.09
2023-05-05T13:57:46.548Z,97027.50
2023-05-05T14:00:35.243Z,97026.38
2023-05-05T14:03:22.026Z,97038.31
2023-05-05T14:06:09.220Z,97038.00
2023-05-05T14:08:56.313Z,97038.25
2023-05-05T14:11:43.120Z,97032.50
2023-05-05T14:14:30.666Z,97031.72
2023-05-05T14:17:17.536Z,97022.19
2023-05-05T14:20:04.512Z,97022.44
2023-05-05T14:22:51.899Z,97027.63
2023-05-05T14:25:38.741Z,97026.25
2023-05-05T14:28:25.675Z,97019.72
2023-05-05T14:31:12.432Z,97012.38
2023-05-05T14:33:59.168Z,97017.50
2023-05-05T14:36:46.264Z,97021.88
2023-05-05T14:39:32.987Z,97022.13
2023-05-05T14:42:19.743Z,97033.81
2023-05-05T14:45:07.423Z,97037.66
2023-05-05T14:47:54.273Z,97033.31
2023-05-05T14:50:42.507Z,97028.13
2023-05-05T14:53:29.374Z,97019.72
2023-05-05T14:56:16.345Z,97024.34
2023-05-05T14:59:03.133Z,97022.19
2023-05-05T15:01:49.882Z,97019.75
2023-05-05T15:04:36.795Z,97015.69
2023-05-05T15:07:28.328Z,97017.84
2023-05-05T15:10:15.164Z,97017.28
2023-05-05T15:13:02.078Z,97012.16
2023-05-05T15:15:49.034Z,97012.41
2023-05-05T15:18:36.021Z,97010.78
2023-05-05T15:21:22.769Z,97017.59
2023-05-05T15:24:09.534Z,97005.91
2023-05-05T15:26:56.361Z,97011.63
2023-05-05T15:29:43.422Z,97006.47
2023-05-05T15:32:30.435Z,97009.97
2023-05-05T15:35:17.216Z,96999.41
2023-05-05T15:38:04.165Z,97001.31
2023-05-05T15:40:50.937Z,97002.13
2023-05-05T15:43:37.786Z,96992.88
2023-05-05T15:46:24.617Z,96991.81
2023-05-05T15:49:11.461Z,96981.19
2023-05-05T15:51:58.292Z,96982.00
2023-05-05T15:54:45.391Z,96990.97
2023-05-05T15:57:33.182Z,96984.72
2023-05-05T16:00:20.391Z,96974.94
2023-05-05T16:03:07.256Z,96976.56
2023-05-05T16:05:54.076Z,96976.56
2023-05-05T16:08:40.977Z,96971.94
2023-05-05T16:11:27.867Z,96967.59
2023-05-05T16:14:14.612Z,96964.88
2023-05-05T16:17:04.444Z,96961.06
2023-05-05T16:19:51.301Z,96958.69
2023-05-05T16:22:38.056Z,96949.50
2023-05-05T16:25:24.902Z,96939.50
2023-05-05T16:28:11.689Z,96944.94
2023-05-05T16:30:58.458Z,96947.63
2023-05-05T16:33:45.742Z,96940.81
2023-05-05T16:36:32.493Z,96940.28
2023-05-05T16:39:19.233Z,96935.13
2023-05-05T16:42:06.299Z,96936.19
2023-05-05T16:44:53.076Z,96940.00
2023-05-05T16:47:39.925Z,96943.00
2023-05-05T16:50:26.791Z,96941.66
2023-05-05T16:53:13.591Z,96932.16
2023-05-05T16:56:00.489Z,96935.16
2023-05-05T16:58:47.278Z,96929.47
2023-05-05T17:01:34.959Z,96934.34
2023-05-05T17:04:21.895Z,96933.00
2023-05-05T17:07:08.648Z,96929.50
2023-05-05T17:09:55.379Z,96927.84
2023-05-05T17:12:42.313Z,96939.25
2023-05-05T17:15:29.148Z,96927.59
2023-05-05T17:18:15.922Z,96934.41
2023-05-05T17:21:02.691Z,96938.19
2023-05-05T17:23:49.456Z,96939.25
2023-05-05T17:26:36.471Z,96938.69
2023-05-05T17:29:23.420Z,96937.88
2023-05-05T17:32:10.319Z,96933.84
2023-05-05T17:34:57.284Z,96930.28
2023-05-05T17:37:44.038Z,96929.75
2023-05-05T17:40:30.894Z,96913.72
2023-05-05T17:43:17.726Z,96925.69
2023-05-05T17:46:04.538Z,96928.69
2023-05-05T17:48:51.952Z,96928.94
2023-05-05T17:51:38.688Z,96926.53
2023-05-05T17:54:25.749Z,96928.69
2023-05-05T17:57:17.017Z,96922.72
2023-05-05T18:00:04.673Z,96922.97
2023-05-05T18:02:51.553Z,96918.66
2023-05-05T18:05:38.402Z,96910.00
2023-05-05T18:08:25.195Z,96907.53
2023-05-05T18:11:12.021Z,96905.09
2023-05-05T18:13:58.823Z,96911.34
2023-05-05T18:16:49.721Z,96908.13
2023-05-05T18:19:36.483Z,96902.97
2023-05-05T18:22:23.286Z,96907.56
2023-05-05T18:25:10.251Z,96894.78
2023-05-05T18:27:57.119Z,96885.78
2023-05-05T18:30:43.894Z,96886.88
2023-05-05T18:33:30.675Z,96884.69
2023-05-05T18:36:17.529Z,96881.97
2023-05-05T18:39:04.293Z,96876.03
2023-05-05T18:41:51.121Z,96887.13
2023-05-05T18:44:37.906Z,96880.59
2023-05-05T18:47:24.725Z,96879.78
2023-05-05T18:50:12.441Z,96885.75
2023-05-05T18:52:59.214Z,96889.53
2023-05-05T18:55:47.111Z,96892.00
2023-05-05T18:58:33.972Z,96900.13
2023-05-05T19:01:20.977Z,96895.75
2023-05-05T19:04:12.934Z,96889.75
2023-05-05T19:07:09.623Z,96898.13
2023-05-05T19:09:56.467Z,96908.66
2023-05-05T19:12:43.273Z,96911.59
2023-05-05T19:15:30.128Z,96928.66
2023-05-05T19:18:16.940Z,96930.53
2023-05-05T19:21:03.688Z,96926.75
2023-05-05T19:23:50.670Z,96922.72
2023-05-05T19:26:37.465Z,96920.06
2023-05-05T19:29:24.181Z,96921.22
2023-05-05T19:32:11.037Z,96924.50
2023-05-05T19:34:58.023Z,96918.31
2023-05-05T19:37:44.821Z,96921.31
2023-05-05T19:40:31.622Z,96910.50
2023-05-05T19:43:18.401Z,96925.66
2023-05-05T19:46:05.276Z,96924.06
2023-05-05T19:48:52.171Z,96925.41
2023-05-05T19:51:39.050Z,96929.19
2023-05-05T19:54:26.014Z,96928.13
2023-05-05T19:57:12.977Z,96926.25
2023-05-05T19:59:59.804Z,96930.31
2023-05-05T20:02:47.428Z,96929.47
2023-05-05T20:05:34.307Z,96926.75
2023-05-05T20:08:21.129Z,96918.63
2023-05-05T20:11:07.890Z,96926.75
2023-05-05T20:13:54.728Z,96927.06
2023-05-05T20:16:42.077Z,96932.47
2023-05-05T20:19:28.928Z,96938.69
2023-05-05T20:22:15.737Z,96946.03
2023-05-05T20:25:02.553Z,96940.03
2023-05-05T20:27:49.586Z,96958.22
2023-05-05T20:30:36.340Z,96950.63
2023-05-05T20:33:23.336Z,96955.22
2023-05-05T20:36:10.617Z,96960.94
2023-05-05T20:38:57.393Z,96975.00
2023-05-05T20:41:46.242Z,96974.44
2023-05-05T20:44:32.966Z,96992.31
2023-05-05T20:47:19.710Z,97002.63
2023-05-05T20:50:06.884Z,97021.84
2023-05-05T20:52:53.769Z,97040.00
2023-05-05T20:55:40.829Z,97044.09
2023-05-05T20:58:27.610Z,97073.06
2023-05-05T21:01:17.672Z,97080.91
2023-05-05T21:04:04.574Z,97069.53
2023-05-05T21:06:51.610Z,97060.03
2023-05-05T21:09:38.392Z,97070.31
2023-05-05T21:12:25.926Z,97069.75
2023-05-05T21:15:12.732Z,97078.16
2023-05-05T21:17:59.585Z,97064.88
2023-05-05T21:20:46.354Z,97071.91
2023-05-05T21:23:33.685Z,97068.63
2023-05-05T21:26:21.174Z,97056.69
2023-05-05T21:29:07.961Z,97069.69
2023-05-05T21:31:54.755Z,97063.16
2023-05-05T21:34:41.640Z,97062.56
2023-05-05T21:37:28.553Z,97061.19
2023-05-05T21:40:16.265Z,97061.75
2023-05-05T21:43:05.647Z,97059.28
2023-05-05T21:45:59.466Z,97055.19
2023-05-05T21:48:46.465Z,97063.03
2023-05-05T21:51:34.501Z,97062.47
2023-05-05T21:54:21.331Z,97059.47
2023-05-05T21:57:08.139Z,97062.44
2023-05-05T21:59:54.915Z,97057.56
2023-05-05T22:02:41.793Z,97069.72
2023-05-05T22:05:28.730Z,97059.41
2023-05-05T22:08:15.473Z,97056.97
2023-05-05T22:11:02.297Z,97062.91
2023-05-05T22:13:49.072Z,97054.22
2023-05-05T22:16:36.024Z,97067.22
2023-05-05T22:19:22.796Z,97062.03
2023-05-05T22:22:09.529Z,97057.97
2023-05-05T22:24:56.539Z,97057.41
2023-05-05T22:27:43.441Z,97064.16
2023-05-05T22:30:30.240Z,97060.09
2023-05-05T22:33:17.072Z,97049.78
2023-05-05T22:36:03.971Z,97052.72
2023-05-05T22:38:50.719Z,97057.59
2023-05-05T22:41:37.521Z,97058.13
2023-05-05T22:44:24.322Z,97054.84
2023-05-05T22:47:11.355Z,97060.78
2023-05-05T22:49:58.395Z,97065.63
2023-05-05T22:52:45.307Z,97066.72
2023-05-05T22:55:32.339Z,97062.63
2023-05-05T22:58:19.103Z,97069.13
2023-05-05T23:01:05.890Z,97053.13
2023-05-05T23:03:52.789Z,97053.09
2023-05-05T23:06:42.619Z,97054.16
2023-05-05T23:09:29.449Z,97052.75
2023-05-05T23:12:16.743Z,97052.19
2023-05-05T23:15:03.751Z,97050.84
2023-05-05T23:17:50.561Z,97053.78
2023-05-05T23:20:37.398Z,97043.47
2023-05-05T23:23:24.155Z,97051.03
2023-05-05T23:26:11.811Z,97046.94
2023-05-05T23:28:58.548Z,97056.38
2023-05-05T23:31:45.791Z,97056.66
2023-05-05T23:34:32.689Z,97052.31
2023-05-05T23:37:19.507Z,97047.16
2023-05-05T23:40:06.921Z,97057.16
2023-05-05T23:42:53.695Z,97051.19
2023-05-05T23:45:40.579Z,97049.00
2023-05-05T23:48:27.285Z,97057.63
2023-05-05T23:51:14.459Z,97060.84
2023-05-05T23:54:01.239Z,97066.50
2023-05-05T23:56:48.037Z,97065.13
2023-05-05T23:59:34.832Z,97059.41
